createdAt,value
2017-09-23T00:00:17.995Z,22
2017-09-23T00:00:46.151Z,22.02
2017-09-23T00:01:14.163Z,21.97
2017-09-23T00:01:42.209Z,21.92
2017-09-23T00:02:10.136Z,21.89
2017-09-23T00:02:38.158Z,21.89
2017-09-23T00:03:06.202Z,21.85
2017-09-23T00:03:34.126Z,21.73
2017-09-23T00:04:02.048Z,21.67
2017-09-23T00:04:30.182Z,21.74
2017-09-23T00:04:58.232Z,21.73
2017-09-23T00:05:26.479Z,21.59
2017-09-23T00:05:54.652Z,21.59
2017-09-23T00:06:22.673Z,21.66
2017-09-23T00:06:50.617Z,21.64
2017-09-23T00:07:18.775Z,21.59
2017-09-23T00:07:46.918Z,21.62
2017-09-23T00:08:14.753Z,21.62
2017-09-23T00:08:42.679Z,21.62
2017-09-23T00:09:10.802Z,21.67
2017-09-23T00:09:38.939Z,21.68
2017-09-23T00:10:06.949Z,21.68
2017-09-23T00:10:34.979Z,21.76
2017-09-23T00:11:03.037Z,21.62
2017-09-23T00:11:31.063Z,21.68
2017-09-23T00:11:59.214Z,21.73
2017-09-23T00:12:27.371Z,21.58
2017-09-23T00:12:55.497Z,21.61
2017-09-23T00:13:23.628Z,21.61
2017-09-23T00:13:51.662Z,21.49
2017-09-23T00:14:19.495Z,21.45
2017-09-23T00:14:47.569Z,21.41
2017-09-23T00:15:15.695Z,21.4
2017-09-23T00:15:43.758Z,21.31
2017-09-23T00:16:11.801Z,21.33
2017-09-23T00:16:39.928Z,21.36
2017-09-23T00:17:07.887Z,21.4
2017-09-23T00:17:35.894Z,21.38
2017-09-23T00:18:04.036Z,21.41
2017-09-23T00:18:32.180Z,21.51
2017-09-23T00:19:00.228Z,21.48
2017-09-23T00:19:28.064Z,21.53
2017-09-23T00:19:56.100Z,21.58
2017-09-23T00:20:24.254Z,21.59
2017-09-23T00:20:52.497Z,21.59
2017-09-23T00:21:20.544Z,21.61
2017-09-23T00:21:48.560Z,21.61
2017-09-23T00:22:16.471Z,21.53
2017-09-23T00:22:44.441Z,21.64
2017-09-23T00:23:12.437Z,21.53
2017-09-23T00:23:40.439Z,21.55
2017-09-23T00:24:08.520Z,21.53
2017-09-23T00:24:36.448Z,21.52
2017-09-23T00:25:04.558Z,21.45
2017-09-23T00:25:32.581Z,21.41
2017-09-23T00:26:00.730Z,21.48
2017-09-23T00:26:28.777Z,21.38
2017-09-23T00:26:56.712Z,21.4
2017-09-23T00:27:24.770Z,21.43
2017-09-23T00:27:52.816Z,21.38
2017-09-23T00:28:20.876Z,21.4
2017-09-23T00:28:48.993Z,21.38
2017-09-23T00:29:17.125Z,21.41
2017-09-23T00:29:45.260Z,21.4
2017-09-23T00:30:13.198Z,21.38
2017-09-23T00:30:41.259Z,21.4
2017-09-23T00:31:09.409Z,21.4
2017-09-23T00:31:37.327Z,21.43
2017-09-23T00:32:05.454Z,21.49
2017-09-23T00:32:33.284Z,21.53
2017-09-23T00:33:01.330Z,21.51
2017-09-23T00:33:29.451Z,21.56
2017-09-23T00:33:57.199Z,21.62
2017-09-23T00:34:25.330Z,21.61
2017-09-23T00:34:53.511Z,21.53
2017-09-23T00:35:21.422Z,21.59
2017-09-23T00:35:49.441Z,21.67
2017-09-23T00:36:17.197Z,21.68
2017-09-23T00:36:45.329Z,21.64
2017-09-23T00:37:13.259Z,21.67
2017-09-23T00:37:41.196Z,21.7
2017-09-23T00:38:09.229Z,21.64
2017-09-23T00:38:37.062Z,21.56
2017-09-23T00:39:04.992Z,21.59
2017-09-23T00:39:33.023Z,21.46
2017-09-23T00:40:01.050Z,21.45
2017-09-23T00:40:29.179Z,21.41
2017-09-23T00:40:57.414Z,21.37
2017-09-23T00:41:25.338Z,21.36
2017-09-23T00:41:53.306Z,21.27
2017-09-23T00:42:21.469Z,21.23
2017-09-23T00:42:49.415Z,21.28
2017-09-23T00:43:17.521Z,21.18
2017-09-23T00:43:45.567Z,21.16
2017-09-23T00:44:13.371Z,21.15
2017-09-23T00:44:41.523Z,21.06
2017-09-23T00:45:09.498Z,21.12
2017-09-23T00:45:37.671Z,21.11
2017-09-23T00:46:05.729Z,20.97
2017-09-23T00:46:33.569Z,21.04
2017-09-23T00:47:01.591Z,21.01
2017-09-23T00:47:29.743Z,20.86
2017-09-23T00:47:57.777Z,20.88
2017-09-23T00:48:25.838Z,20.86
2017-09-23T00:48:53.755Z,20.76
2017-09-23T00:49:21.812Z,20.81
2017-09-23T00:49:49.743Z,20.79
2017-09-23T00:50:17.568Z,20.78
2017-09-23T00:50:45.699Z,20.72
2017-09-23T00:51:13.836Z,20.78
2017-09-23T00:51:41.950Z,20.78
2017-09-23T00:52:10.092Z,20.76
2017-09-23T00:52:38.005Z,20.72
2017-09-23T00:53:05.938Z,20.75
2017-09-23T00:53:33.950Z,20.68
2017-09-23T00:54:01.985Z,20.68
2017-09-23T00:54:29.936Z,20.67
2017-09-23T00:54:57.858Z,20.71
2017-09-23T00:55:25.913Z,20.68
2017-09-23T00:55:54.030Z,20.68
2017-09-23T00:56:22.034Z,20.56
2017-09-23T00:56:50.053Z,20.57
2017-09-23T00:57:18.108Z,20.63
2017-09-23T00:57:46.135Z,20.6
2017-09-23T00:58:14.274Z,20.58
2017-09-23T00:58:42.402Z,20.46
2017-09-23T00:59:10.566Z,20.57
2017-09-23T00:59:38.616Z,20.58
2017-09-23T01:00:06.556Z,20.57
2017-09-23T01:00:34.692Z,20.58
2017-09-23T01:01:02.919Z,20.6
2017-09-23T01:01:30.959Z,20.63
2017-09-23T01:01:58.924Z,20.67
2017-09-23T01:02:26.774Z,20.72
2017-09-23T01:02:54.711Z,20.68
2017-09-23T01:03:22.746Z,20.68
2017-09-23T01:03:50.897Z,20.75
2017-09-23T01:04:18.824Z,20.68
2017-09-23T01:04:46.733Z,20.71
2017-09-23T01:05:14.770Z,20.68
2017-09-23T01:05:42.815Z,20.72
2017-09-23T01:06:11.062Z,20.68
2017-09-23T01:06:38.998Z,20.66
2017-09-23T01:07:07.027Z,20.68
2017-09-23T01:07:34.767Z,20.67
2017-09-23T01:08:02.792Z,20.71
2017-09-23T01:08:30.733Z,20.67
2017-09-23T01:08:58.740Z,20.57
2017-09-23T01:09:26.764Z,20.61
2017-09-23T01:09:54.715Z,20.61
2017-09-23T01:10:22.877Z,20.61
2017-09-23T01:10:50.827Z,20.48
2017-09-23T01:11:19.070Z,20.57
2017-09-23T01:11:47.207Z,20.49
2017-09-23T01:12:15.141Z,20.46
2017-09-23T01:12:42.972Z,20.51
2017-09-23T01:13:11.001Z,20.51
2017-09-23T01:13:38.944Z,20.44
2017-09-23T01:14:06.860Z,20.44
2017-09-23T01:14:34.910Z,20.46
2017-09-23T01:15:02.646Z,20.44
2017-09-23T01:15:30.663Z,20.37
2017-09-23T01:15:58.816Z,20.38
2017-09-23T01:16:26.636Z,20.4
2017-09-23T01:16:54.780Z,20.38
2017-09-23T01:17:22.907Z,20.37
2017-09-23T01:17:51.050Z,20.4
2017-09-23T01:18:19.074Z,20.34
2017-09-23T01:18:47.124Z,20.34
2017-09-23T01:19:15.232Z,20.34
2017-09-23T01:19:43.373Z,20.32
2017-09-23T01:20:11.311Z,20.26
2017-09-23T01:20:39.317Z,20.3
2017-09-23T01:21:07.334Z,20.32
2017-09-23T01:21:35.475Z,20.27
2017-09-23T01:22:03.613Z,20.34
2017-09-23T01:22:31.750Z,20.27
2017-09-23T01:22:59.790Z,20.29
2017-09-23T01:23:27.922Z,20.27
2017-09-23T01:23:55.977Z,20.3
2017-09-23T01:24:24.008Z,20.2
2017-09-23T01:24:52.160Z,20.26
2017-09-23T01:25:20.189Z,20.25
2017-09-23T01:25:48.108Z,20.25
2017-09-23T01:26:16.357Z,20.25
2017-09-23T01:26:44.392Z,20.25
2017-09-23T01:27:12.333Z,20.22
2017-09-23T01:27:40.454Z,20.32
2017-09-23T01:28:08.400Z,20.23
2017-09-23T01:28:36.531Z,20.29
2017-09-23T01:29:04.677Z,20.18
2017-09-23T01:29:32.813Z,20.25
2017-09-23T01:30:00.741Z,20.25
2017-09-23T01:30:28.805Z,20.23
2017-09-23T01:30:56.750Z,20.3
2017-09-23T01:31:24.689Z,20.23
2017-09-23T01:31:52.512Z,20.16
2017-09-23T01:32:20.618Z,20.15
2017-09-23T01:32:48.647Z,20.22
2017-09-23T01:33:16.703Z,20.15
2017-09-23T01:33:44.679Z,20.11
2017-09-23T01:34:12.692Z,20.05
2017-09-23T01:34:40.809Z,19.98
2017-09-23T01:35:08.940Z,19.98
2017-09-23T01:35:37.079Z,20.01
2017-09-23T01:36:05.004Z,19.87
2017-09-23T01:36:32.948Z,19.79
2017-09-23T01:37:00.805Z,19.86
2017-09-23T01:37:28.862Z,19.83
2017-09-23T01:37:56.685Z,19.85
2017-09-23T01:38:24.620Z,19.85
2017-09-23T01:38:52.765Z,19.72
2017-09-23T01:39:20.774Z,19.72
2017-09-23T01:39:48.699Z,19.72
2017-09-23T01:40:16.732Z,19.75
2017-09-23T01:40:44.862Z,19.72
2017-09-23T01:41:12.804Z,19.78
2017-09-23T01:41:40.720Z,19.74
2017-09-23T01:42:08.832Z,19.78
2017-09-23T01:42:36.654Z,19.71
2017-09-23T01:43:04.763Z,19.71
2017-09-23T01:43:32.598Z,19.75
2017-09-23T01:44:00.718Z,19.78
2017-09-23T01:44:28.588Z,19.7
2017-09-23T01:44:56.536Z,19.68
2017-09-23T01:45:24.689Z,19.65
2017-09-23T01:45:52.606Z,19.67
2017-09-23T01:46:20.737Z,19.72
2017-09-23T01:46:48.674Z,19.72
2017-09-23T01:47:16.595Z,19.75
2017-09-23T01:47:44.747Z,19.71
2017-09-23T01:48:12.910Z,19.64
2017-09-23T01:48:40.732Z,19.68
2017-09-23T01:49:08.581Z,19.7
2017-09-23T01:49:36.708Z,19.67
2017-09-23T01:50:04.590Z,19.72
2017-09-23T01:50:32.618Z,19.68
2017-09-23T01:51:00.675Z,19.65
2017-09-23T01:51:28.831Z,19.68
2017-09-23T01:51:56.874Z,19.64
2017-09-23T01:52:24.917Z,19.6
2017-09-23T01:52:52.955Z,19.64
2017-09-23T01:53:20.992Z,19.63
2017-09-23T01:53:49.025Z,19.63
2017-09-23T01:54:16.841Z,19.6
2017-09-23T01:54:44.691Z,19.63
2017-09-23T01:55:12.846Z,19.56
2017-09-23T01:55:40.769Z,19.5
2017-09-23T01:56:08.710Z,19.53
2017-09-23T01:56:36.747Z,19.5
2017-09-23T01:57:04.471Z,19.46
2017-09-23T01:57:32.419Z,19.38
2017-09-23T01:58:00.550Z,19.42
2017-09-23T01:58:28.608Z,19.31
2017-09-23T01:58:56.734Z,19.32
2017-09-23T01:59:24.671Z,19.34
2017-09-23T01:59:52.723Z,19.32
2017-09-23T02:00:20.732Z,19.32
2017-09-23T02:00:48.630Z,19.3
2017-09-23T02:01:16.742Z,19.24
2017-09-23T02:01:44.840Z,19.27
2017-09-23T02:02:12.779Z,19.2
2017-09-23T02:02:40.895Z,19.24
2017-09-23T02:03:08.835Z,19.17
2017-09-23T02:03:36.998Z,19.13
2017-09-23T02:04:04.923Z,19.19
2017-09-23T02:04:32.863Z,19.1
2017-09-23T02:05:00.916Z,19.15
2017-09-23T02:05:28.861Z,19.13
2017-09-23T02:05:56.793Z,19.13
2017-09-23T02:06:24.912Z,19.05
2017-09-23T02:06:52.741Z,19.15
2017-09-23T02:07:20.767Z,19.05
2017-09-23T02:07:48.797Z,19.07
2017-09-23T02:08:16.741Z,19.12
2017-09-23T02:08:44.909Z,19.07
2017-09-23T02:09:12.929Z,19.07
2017-09-23T02:09:40.933Z,19.05
2017-09-23T02:10:08.896Z,19.19
2017-09-23T02:10:37.040Z,19.05
2017-09-23T02:11:04.957Z,19.16
2017-09-23T02:11:33.037Z,19.1
2017-09-23T02:12:00.966Z,19.09
2017-09-23T02:12:29.008Z,19.06
2017-09-23T02:12:57.160Z,19.12
2017-09-23T02:13:25.196Z,19.15
2017-09-23T02:13:53.126Z,19.06
2017-09-23T02:14:21.298Z,19.06
2017-09-23T02:14:49.430Z,19.09
2017-09-23T02:15:17.343Z,18.97
2017-09-23T02:15:45.386Z,18.99
2017-09-23T02:16:13.318Z,18.99
2017-09-23T02:16:41.462Z,18.96
2017-09-23T02:17:09.311Z,18.99
2017-09-23T02:17:37.076Z,18.99
2017-09-23T02:18:05.118Z,19.02
2017-09-23T02:18:33.148Z,19
2017-09-23T02:19:01.160Z,18.99
2017-09-23T02:19:29.196Z,19
2017-09-23T02:19:57.212Z,19
2017-09-23T02:20:25.249Z,19.02
2017-09-23T02:20:53.300Z,18.99
2017-09-23T02:21:21.203Z,19.02
2017-09-23T02:21:49.130Z,19.02
2017-09-23T02:22:17.183Z,19.07
2017-09-23T02:22:45.336Z,19
2017-09-23T02:23:13.256Z,19
2017-09-23T02:23:41.186Z,19.1
2017-09-23T02:24:09.218Z,19.06
2017-09-23T02:24:37.385Z,19.1
2017-09-23T02:25:05.421Z,19.12
2017-09-23T02:25:33.357Z,19.15
2017-09-23T02:26:01.507Z,19.2
2017-09-23T02:26:29.541Z,19.16
2017-09-23T02:26:57.564Z,19.15
2017-09-23T02:27:25.495Z,19.09
2017-09-23T02:27:53.529Z,19.06
2017-09-23T02:28:21.694Z,19.13
2017-09-23T02:28:49.723Z,19.09
2017-09-23T02:29:17.746Z,19.1
2017-09-23T02:29:45.874Z,19.1
2017-09-23T02:30:13.798Z,18.99
2017-09-23T02:30:41.813Z,19.07
2017-09-23T02:31:09.875Z,19.09
2017-09-23T02:31:38.025Z,19
2017-09-23T02:32:06.056Z,19.02
2017-09-23T02:32:33.889Z,19.02
2017-09-23T02:33:01.921Z,19.02
2017-09-23T02:33:29.953Z,18.91
2017-09-23T02:33:58.061Z,18.99
2017-09-23T02:34:26.203Z,18.91
2017-09-23T02:34:54.159Z,18.94
2017-09-23T02:35:21.990Z,18.81
2017-09-23T02:35:49.839Z,18.89
2017-09-23T02:36:17.690Z,18.81
2017-09-23T02:36:45.941Z,18.82
2017-09-23T02:37:14.091Z,18.86
2017-09-23T02:37:41.839Z,18.79
2017-09-23T02:38:09.851Z,18.75
2017-09-23T02:38:37.883Z,18.82
2017-09-23T02:39:05.899Z,18.76
2017-09-23T02:39:33.821Z,18.74
2017-09-23T02:40:01.646Z,18.79
2017-09-23T02:40:29.708Z,18.75
2017-09-23T02:40:57.827Z,18.75
2017-09-23T02:41:25.843Z,18.82
2017-09-23T02:41:53.947Z,18.81
2017-09-23T02:42:21.770Z,18.82
2017-09-23T02:42:49.707Z,18.78
2017-09-23T02:43:17.541Z,18.72
2017-09-23T02:43:45.400Z,18.75
2017-09-23T02:44:13.521Z,18.66
2017-09-23T02:44:41.576Z,18.69
2017-09-23T02:45:09.591Z,18.57
2017-09-23T02:45:37.636Z,18.59
2017-09-23T02:46:05.744Z,18.63
2017-09-23T02:46:33.675Z,18.56
2017-09-23T02:47:01.916Z,18.63
2017-09-23T02:47:29.935Z,18.49
2017-09-23T02:47:58.075Z,18.49
2017-09-23T02:48:26.010Z,18.49
2017-09-23T02:48:53.976Z,18.51
2017-09-23T02:49:21.972Z,18.49
2017-09-23T02:49:50.098Z,18.45
2017-09-23T02:50:18.277Z,18.53
2017-09-23T02:50:46.250Z,18.45
2017-09-23T02:51:14.065Z,18.53
2017-09-23T02:51:42.013Z,18.49
2017-09-23T02:52:10.151Z,18.56
2017-09-23T02:52:38.073Z,18.56
2017-09-23T02:53:06.113Z,18.56
2017-09-23T02:53:33.962Z,18.53
2017-09-23T02:54:01.987Z,18.5
2017-09-23T02:54:29.922Z,18.61
2017-09-23T02:54:58.076Z,18.61
2017-09-23T02:55:26.030Z,18.63
2017-09-23T02:55:54.141Z,18.5
2017-09-23T02:56:22.285Z,18.49
2017-09-23T02:56:50.432Z,18.57
2017-09-23T02:57:18.466Z,18.56
2017-09-23T02:57:46.505Z,18.61
2017-09-23T02:58:14.562Z,18.59
2017-09-23T02:58:42.710Z,18.65
2017-09-23T02:59:10.659Z,18.54
2017-09-23T02:59:38.580Z,18.56
2017-09-23T03:00:06.605Z,18.69
2017-09-23T03:00:34.447Z,18.66
2017-09-23T03:01:02.598Z,18.68
2017-09-23T03:01:30.707Z,18.68
2017-09-23T03:01:58.848Z,18.71
2017-09-23T03:02:26.994Z,18.75
2017-09-23T03:02:55.151Z,18.75
2017-09-23T03:03:23.185Z,18.79
2017-09-23T03:03:51.307Z,18.9
2017-09-23T03:04:19.348Z,18.87
2017-09-23T03:04:47.452Z,18.91
2017-09-23T03:05:15.502Z,18.99
2017-09-23T03:05:43.639Z,18.87
2017-09-23T03:06:11.688Z,18.87
2017-09-23T03:06:39.634Z,18.91
2017-09-23T03:07:07.561Z,18.96
2017-09-23T03:07:35.592Z,18.97
2017-09-23T03:08:03.617Z,19.02
2017-09-23T03:08:31.653Z,18.99
2017-09-23T03:08:59.681Z,19.02
2017-09-23T03:09:27.601Z,19.09
2017-09-23T03:09:55.654Z,19.12
2017-09-23T03:10:23.466Z,19.09
2017-09-23T03:10:51.522Z,19.15
2017-09-23T03:11:19.486Z,19.16
2017-09-23T03:11:47.546Z,19.19
2017-09-23T03:12:15.799Z,19.25
2017-09-23T03:12:43.844Z,19.17
2017-09-23T03:13:11.767Z,19.3
2017-09-23T03:13:39.801Z,19.23
2017-09-23T03:14:07.905Z,19.23
2017-09-23T03:14:35.913Z,19.19
2017-09-23T03:15:03.732Z,19.3
2017-09-23T03:15:31.584Z,19.25
2017-09-23T03:15:59.528Z,19.25
2017-09-23T03:16:27.662Z,19.31
2017-09-23T03:16:55.693Z,19.31
2017-09-23T03:17:23.961Z,19.25
2017-09-23T03:17:51.988Z,19.25
2017-09-23T03:18:20.037Z,19.23
2017-09-23T03:18:48.056Z,19.25
2017-09-23T03:19:15.973Z,19.31
2017-09-23T03:19:44.020Z,19.23
2017-09-23T03:20:12.051Z,19.2
2017-09-23T03:20:39.978Z,19.25
2017-09-23T03:21:08.131Z,19.2
2017-09-23T03:21:36.193Z,19.16
2017-09-23T03:22:04.354Z,19.1
2017-09-23T03:22:32.530Z,19.19
2017-09-23T03:23:00.567Z,18.99
2017-09-23T03:23:28.594Z,19
2017-09-23T03:23:56.637Z,18.99
2017-09-23T03:24:24.455Z,19.02
2017-09-23T03:24:52.365Z,18.82
2017-09-23T03:25:20.385Z,18.9
2017-09-23T03:25:48.508Z,18.93
2017-09-23T03:26:16.626Z,18.86
2017-09-23T03:26:44.667Z,18.9
2017-09-23T03:27:12.800Z,18.89
2017-09-23T03:27:40.661Z,18.76
2017-09-23T03:28:08.668Z,18.75
2017-09-23T03:28:36.597Z,18.81
2017-09-23T03:29:04.518Z,18.75
2017-09-23T03:29:32.562Z,18.76
2017-09-23T03:30:00.582Z,18.75
2017-09-23T03:30:28.517Z,18.72
2017-09-23T03:30:56.567Z,18.72
2017-09-23T03:31:24.629Z,18.75
2017-09-23T03:31:52.658Z,18.74
2017-09-23T03:32:20.485Z,18.75
2017-09-23T03:32:48.528Z,18.75
2017-09-23T03:33:16.674Z,18.75
2017-09-23T03:33:44.714Z,18.78
2017-09-23T03:34:12.860Z,18.72
2017-09-23T03:34:40.895Z,18.76
2017-09-23T03:35:08.948Z,18.69
2017-09-23T03:35:36.817Z,18.68
2017-09-23T03:36:04.952Z,18.71
2017-09-23T03:36:33.109Z,18.72
2017-09-23T03:37:01.050Z,18.76
2017-09-23T03:37:29.064Z,18.65
2017-09-23T03:37:57.192Z,18.76
2017-09-23T03:38:25.322Z,18.71
2017-09-23T03:38:53.469Z,18.61
2017-09-23T03:39:21.491Z,18.66
2017-09-23T03:39:49.521Z,18.61
2017-09-23T03:40:17.382Z,18.65
2017-09-23T03:40:45.219Z,18.57
2017-09-23T03:41:13.339Z,18.49
2017-09-23T03:41:41.362Z,18.57
2017-09-23T03:42:09.175Z,18.54
2017-09-23T03:42:37.462Z,18.56
2017-09-23T03:43:05.493Z,18.56
2017-09-23T03:43:33.420Z,18.66
2017-09-23T03:44:01.549Z,18.69
2017-09-23T03:44:29.578Z,18.72
2017-09-23T03:44:57.588Z,18.72
2017-09-23T03:45:25.529Z,18.76
2017-09-23T03:45:53.678Z,18.78
2017-09-23T03:46:21.724Z,18.72
2017-09-23T03:46:49.565Z,18.81
2017-09-23T03:47:17.793Z,18.82
2017-09-23T03:47:45.737Z,18.79
2017-09-23T03:48:13.640Z,18.79
2017-09-23T03:48:41.680Z,18.78
2017-09-23T03:49:09.727Z,18.86
2017-09-23T03:49:37.862Z,18.79
2017-09-23T03:50:05.892Z,18.76
2017-09-23T03:50:33.814Z,18.76
2017-09-23T03:51:01.623Z,18.75
2017-09-23T03:51:29.779Z,18.75
2017-09-23T03:51:57.898Z,18.76
2017-09-23T03:52:25.939Z,18.74
2017-09-23T03:52:53.870Z,18.78
2017-09-23T03:53:22.014Z,18.74
2017-09-23T03:53:50.045Z,18.75
2017-09-23T03:54:18.066Z,18.79
2017-09-23T03:54:46.103Z,18.75
2017-09-23T03:55:13.938Z,18.71
2017-09-23T03:55:41.976Z,18.81
2017-09-23T03:56:10.009Z,18.78
2017-09-23T03:56:37.921Z,18.75
2017-09-23T03:57:05.862Z,18.79
2017-09-23T03:57:34.096Z,18.76
2017-09-23T03:58:01.918Z,18.72
2017-09-23T03:58:30.046Z,18.69
2017-09-23T03:58:57.980Z,18.71
2017-09-23T03:59:25.896Z,18.66
2017-09-23T03:59:53.838Z,18.69
2017-09-23T04:00:21.970Z,18.66
2017-09-23T04:00:50.010Z,18.68
2017-09-23T04:01:18.144Z,18.65
2017-09-23T04:01:46.207Z,18.66
2017-09-23T04:02:14.367Z,18.63
2017-09-23T04:02:42.506Z,18.66
2017-09-23T04:03:10.547Z,18.56
2017-09-23T04:03:38.676Z,18.49
2017-09-23T04:04:06.618Z,18.6
2017-09-23T04:04:34.641Z,18.5
2017-09-23T04:05:02.665Z,18.51
2017-09-23T04:05:30.771Z,18.49
2017-09-23T04:05:58.788Z,18.5
2017-09-23T04:06:26.597Z,18.45
2017-09-23T04:06:54.719Z,18.34
2017-09-23T04:07:22.670Z,18.38
2017-09-23T04:07:50.800Z,18.41
2017-09-23T04:08:18.917Z,18.31
2017-09-23T04:08:46.848Z,18.35
2017-09-23T04:09:14.910Z,18.24
2017-09-23T04:09:42.818Z,18.34
2017-09-23T04:10:10.880Z,18.27
2017-09-23T04:10:38.804Z,18.31
2017-09-23T04:11:06.929Z,18.24
2017-09-23T04:11:34.784Z,18.23
2017-09-23T04:12:02.724Z,18.27
2017-09-23T04:12:30.947Z,18.29
2017-09-23T04:12:58.863Z,18.26
2017-09-23T04:13:26.697Z,18.31
2017-09-23T04:13:54.827Z,18.2
2017-09-23T04:14:22.858Z,18.2
2017-09-23T04:14:50.899Z,18.23
2017-09-23T04:15:18.868Z,18.2
2017-09-23T04:15:46.983Z,18.19
2017-09-23T04:16:15.035Z,18.26
2017-09-23T04:16:42.856Z,18.24
2017-09-23T04:17:10.868Z,18.26
2017-09-23T04:17:39.092Z,18.32
2017-09-23T04:18:07.112Z,18.27
2017-09-23T04:18:35.045Z,18.26
2017-09-23T04:19:03.068Z,18.41
2017-09-23T04:19:31.080Z,18.39
2017-09-23T04:19:59.103Z,18.34
2017-09-23T04:20:27.161Z,18.51
2017-09-23T04:20:55.108Z,18.5
2017-09-23T04:21:23.065Z,18.5
2017-09-23T04:21:51.013Z,18.5
2017-09-23T04:22:18.942Z,18.53
2017-09-23T04:22:47.005Z,18.47
2017-09-23T04:23:15.022Z,18.54
2017-09-23T04:23:42.988Z,18.61
2017-09-23T04:24:11.049Z,18.63
2017-09-23T04:24:38.891Z,18.63
2017-09-23T04:25:06.848Z,18.56
2017-09-23T04:25:34.778Z,18.69
2017-09-23T04:26:02.699Z,18.68
2017-09-23T04:26:30.730Z,18.65
2017-09-23T04:26:58.680Z,18.66
2017-09-23T04:27:26.626Z,18.71
2017-09-23T04:27:54.799Z,18.69
2017-09-23T04:28:22.773Z,18.71
2017-09-23T04:28:50.881Z,18.66
2017-09-23T04:29:19.015Z,18.69
2017-09-23T04:29:46.954Z,18.74
2017-09-23T04:30:14.873Z,18.74
2017-09-23T04:30:42.823Z,18.71
2017-09-23T04:31:10.738Z,18.68
2017-09-23T04:31:38.779Z,18.72
2017-09-23T04:32:06.824Z,18.68
2017-09-23T04:32:34.631Z,18.68
2017-09-23T04:33:02.880Z,18.66
2017-09-23T04:33:30.900Z,18.65
2017-09-23T04:33:58.838Z,18.6
2017-09-23T04:34:26.867Z,18.63
2017-09-23T04:34:54.805Z,18.56
2017-09-23T04:35:22.834Z,18.63
2017-09-23T04:35:50.741Z,18.51
2017-09-23T04:36:18.697Z,18.53
2017-09-23T04:36:46.850Z,18.56
2017-09-23T04:37:14.980Z,18.59
2017-09-23T04:37:43.094Z,18.51
2017-09-23T04:38:11.176Z,18.49
2017-09-23T04:38:39.092Z,18.5
2017-09-23T04:39:07.245Z,18.51
2017-09-23T04:39:35.161Z,18.5
2017-09-23T04:40:03.002Z,18.51
2017-09-23T04:40:30.908Z,18.51
2017-09-23T04:40:58.844Z,18.5
2017-09-23T04:41:26.972Z,18.49
2017-09-23T04:41:55.029Z,18.5
2017-09-23T04:42:23.056Z,18.53
2017-09-23T04:42:51.203Z,18.51
2017-09-23T04:43:19.141Z,18.49
2017-09-23T04:43:46.962Z,18.45
2017-09-23T04:44:14.894Z,18.49
2017-09-23T04:44:42.932Z,18.5
2017-09-23T04:45:10.964Z,18.49
2017-09-23T04:45:38.894Z,18.49
2017-09-23T04:46:07.031Z,18.49
2017-09-23T04:46:35.176Z,18.5
2017-09-23T04:47:03.117Z,18.47
2017-09-23T04:47:31.266Z,18.47
2017-09-23T04:47:59.429Z,18.51
2017-09-23T04:48:27.471Z,18.49
2017-09-23T04:48:55.577Z,18.45
2017-09-23T04:49:23.745Z,18.39
2017-09-23T04:49:51.769Z,18.38
2017-09-23T04:50:19.686Z,18.38
2017-09-23T04:50:47.622Z,18.41
2017-09-23T04:51:15.765Z,18.35
2017-09-23T04:51:43.814Z,18.38
2017-09-23T04:52:11.882Z,18.27
2017-09-23T04:52:40.016Z,18.32
2017-09-23T04:53:08.236Z,18.31
2017-09-23T04:53:36.368Z,18.32
2017-09-23T04:54:04.270Z,18.31
2017-09-23T04:54:32.307Z,18.29
2017-09-23T04:55:00.446Z,18.26
2017-09-23T04:55:28.380Z,18.31
2017-09-23T04:55:56.521Z,18.2
2017-09-23T04:56:24.672Z,18.29
2017-09-23T04:56:52.726Z,18.29
2017-09-23T04:57:20.713Z,18.24
2017-09-23T04:57:48.866Z,18.21
2017-09-23T04:58:17.107Z,18.27
2017-09-23T04:58:45.148Z,18.21
2017-09-23T04:59:13.178Z,18.27
2017-09-23T04:59:41.324Z,18.29
2017-09-23T05:00:09.381Z,18.27
2017-09-23T05:00:37.413Z,18.23
2017-09-23T05:01:05.349Z,18.24
2017-09-23T05:01:33.508Z,18.24
2017-09-23T05:02:01.374Z,18.19
2017-09-23T05:02:29.474Z,18.14
2017-09-23T05:02:57.710Z,18.13
2017-09-23T05:03:25.622Z,18.1
2017-09-23T05:03:53.670Z,18.2
2017-09-23T05:04:21.696Z,18.16
2017-09-23T05:04:49.840Z,18.08
2017-09-23T05:05:17.957Z,18.08
2017-09-23T05:05:46.079Z,18.13
2017-09-23T05:06:14.095Z,18.08
2017-09-23T05:06:42.080Z,18.13
2017-09-23T05:07:10.121Z,18.1
2017-09-23T05:07:38.257Z,18.08
2017-09-23T05:08:06.510Z,18.01
2017-09-23T05:08:34.646Z,18.02
2017-09-23T05:09:02.671Z,18.08
2017-09-23T05:09:30.918Z,17.99
2017-09-23T05:09:59.346Z,18.03
2017-09-23T05:10:27.977Z,17.92
2017-09-23T05:10:56.448Z,17.96
2017-09-23T05:11:24.786Z,17.92
2017-09-23T05:11:53.611Z,17.84
2017-09-23T05:12:21.939Z,17.86
2017-09-23T05:12:50.275Z,17.81
2017-09-23T05:13:18.838Z,17.88
2017-09-23T05:13:46.983Z,17.9
2017-09-23T05:14:15.226Z,17.88
2017-09-23T05:14:43.568Z,17.87
2017-09-23T05:15:11.747Z,17.79
2017-09-23T05:15:40.073Z,17.79
2017-09-23T05:16:08.485Z,17.71
2017-09-23T05:16:37.169Z,17.62
2017-09-23T05:17:05.572Z,17.65
2017-09-23T05:17:34.546Z,17.66
2017-09-23T05:18:02.987Z,17.63
2017-09-23T05:18:31.523Z,17.66
2017-09-23T05:18:59.663Z,17.58
2017-09-23T05:19:28.160Z,17.62
2017-09-23T05:19:56.609Z,17.5
2017-09-23T05:20:25.202Z,17.52
2017-09-23T05:20:53.358Z,17.49
2017-09-23T05:21:21.774Z,17.54
2017-09-23T05:21:50.021Z,17.47
2017-09-23T05:22:18.357Z,17.42
2017-09-23T05:22:46.549Z,17.43
2017-09-23T05:23:14.924Z,17.46
2017-09-23T05:23:43.280Z,17.49
2017-09-23T05:24:11.378Z,17.46
2017-09-23T05:24:39.607Z,17.42
2017-09-23T05:25:08.128Z,17.45
2017-09-23T05:25:36.458Z,17.38
2017-09-23T05:26:04.874Z,17.32
2017-09-23T05:26:33.250Z,17.42
2017-09-23T05:27:01.538Z,17.32
2017-09-23T05:27:29.911Z,17.28
2017-09-23T05:27:58.208Z,17.35
2017-09-23T05:28:26.837Z,17.36
2017-09-23T05:28:55.269Z,17.32
2017-09-23T05:29:23.642Z,17.32
2017-09-23T05:29:52.038Z,17.35
2017-09-23T05:30:20.582Z,17.32
2017-09-23T05:30:49.095Z,17.32
2017-09-23T05:31:17.526Z,17.36
2017-09-23T05:31:45.793Z,17.28
2017-09-23T05:32:14.004Z,17.32
2017-09-23T05:32:42.404Z,17.36
2017-09-23T05:33:10.702Z,17.42
2017-09-23T05:33:39.062Z,17.42
2017-09-23T05:34:07.575Z,17.38
2017-09-23T05:34:35.793Z,17.43
2017-09-23T05:35:04.177Z,17.36
2017-09-23T05:35:33.098Z,17.45
2017-09-23T05:36:01.505Z,17.45
2017-09-23T05:36:29.969Z,17.43
2017-09-23T05:36:58.659Z,17.45
2017-09-23T05:37:27.312Z,17.49
2017-09-23T05:37:55.579Z,17.49
2017-09-23T05:38:24.078Z,17.52
2017-09-23T05:38:52.645Z,17.57
2017-09-23T05:39:20.908Z,17.45
2017-09-23T05:39:49.352Z,17.49
2017-09-23T05:40:17.741Z,17.5
2017-09-23T05:40:46.266Z,17.54
2017-09-23T05:41:14.520Z,17.5
2017-09-23T05:41:43.091Z,17.54
2017-09-23T05:42:11.647Z,17.5
2017-09-23T05:42:40.237Z,17.43
2017-09-23T05:43:08.569Z,17.52
2017-09-23T05:43:37.086Z,17.46
2017-09-23T05:44:05.230Z,17.49
2017-09-23T05:44:33.520Z,17.42
2017-09-23T05:45:01.908Z,17.36
2017-09-23T05:45:30.299Z,17.35
2017-09-23T05:45:58.813Z,17.35
2017-09-23T05:46:27.228Z,17.25
2017-09-23T05:46:55.588Z,17.36
2017-09-23T05:47:23.795Z,17.32
2017-09-23T05:47:52.148Z,17.3
2017-09-23T05:48:20.506Z,17.38
2017-09-23T05:48:49.064Z,17.3
2017-09-23T05:49:17.170Z,17.32
2017-09-23T05:49:45.645Z,17.28
2017-09-23T05:50:14.067Z,17.36
2017-09-23T05:50:42.457Z,17.32
2017-09-23T05:51:10.775Z,17.35
2017-09-23T05:51:38.996Z,17.36
2017-09-23T05:52:07.244Z,17.25
2017-09-23T05:52:35.491Z,17.25
2017-09-23T05:53:03.935Z,17.24
2017-09-23T05:53:31.928Z,17.2
2017-09-23T05:54:00.273Z,17.21
2017-09-23T05:54:28.659Z,17.24
2017-09-23T05:54:57.116Z,17.21
2017-09-23T05:55:25.370Z,17.3
2017-09-23T05:55:53.760Z,17.22
2017-09-23T05:56:22.201Z,17.25
2017-09-23T05:56:50.556Z,17.27
2017-09-23T05:57:18.814Z,17.32
2017-09-23T05:57:46.992Z,17.32
2017-09-23T05:58:15.184Z,17.35
2017-09-23T05:58:43.654Z,17.28
2017-09-23T05:59:11.863Z,17.31
2017-09-23T05:59:40.150Z,17.39
2017-09-23T06:00:08.508Z,17.4
2017-09-23T06:00:36.798Z,17.46
2017-09-23T06:01:05.231Z,17.46
2017-09-23T06:01:33.686Z,17.47
2017-09-23T06:02:01.887Z,17.54
2017-09-23T06:02:30.189Z,17.52
2017-09-23T06:02:58.572Z,17.5